sensor_id;sensor_type;location;lat;lon;timestamp;temperature;humidity
14727;DHT22;7454;51.256;8.176;2023-05-07T00:02:24;13.50;81.70
14727;DHT22;7454;51.256;8.176;2023-05-07T00:04:50;13.60;81.70
14727;DHT22;7454;51.256;8.176;2023-05-07T00:07:17;13.50;81.80
14727;DHT22;7454;51.256;8.176;2023-05-07T00:09:43;13.50;81.70
14727;DHT22;7454;51.256;8.176;2023-05-07T00:12:09;13.60;81.80
14727;DHT22;7454;51.256;8.176;2023-05-07T00:14:34;13.50;81.80
14727;DHT22;7454;51.256;8.176;2023-05-07T00:17:00;13.60;81.80
14727;DHT22;7454;51.256;8.176;2023-05-07T00:19:26;13.50;81.70
14727;DHT22;7454;51.256;8.176;2023-05-07T00:21:51;13.60;81.90
14727;DHT22;7454;51.256;8.176;2023-05-07T00:24:19;13.50;81.90
14727;DHT22;7454;51.256;8.176;2023-05-07T00:26:44;13.50;82.00
14727;DHT22;7454;51.256;8.176;2023-05-07T00:29:10;13.60;82.00
14727;DHT22;7454;51.256;8.176;2023-05-07T00:31:36;13.50;82.00
14727;DHT22;7454;51.256;8.176;2023-05-07T00:34:01;13.50;82.10
14727;DHT22;7454;51.256;8.176;2023-05-07T00:36:27;13.40;82.10
14727;DHT22;7454;51.256;8.176;2023-05-07T00:38:53;13.40;82.10
14727;DHT22;7454;51.256;8.176;2023-05-07T00:41:20;13.40;82.10
14727;DHT22;7454;51.256;8.176;2023-05-07T00:43:45;13.40;82.10
14727;DHT22;7454;51.256;8.176;2023-05-07T00:46:11;13.40;82.20
14727;DHT22;7454;51.256;8.176;2023-05-07T00:48:37;13.40;82.10
14727;DHT22;7454;51.256;8.176;2023-05-07T00:51:03;13.40;82.00
14727;DHT22;7454;51.256;8.176;2023-05-07T00:53:28;13.40;82.10
14727;DHT22;7454;51.256;8.176;2023-05-07T00:55:54;13.40;82.10
14727;DHT22;7454;51.256;8.176;2023-05-07T00:58:21;13.40;82.00
14727;DHT22;7454;51.256;8.176;2023-05-07T01:00:47;13.40;82.10
14727;DHT22;7454;51.256;8.176;2023-05-07T01:03:12;13.40;82.10
14727;DHT22;7454;51.256;8.176;2023-05-07T01:05:38;13.40;82.00
14727;DHT22;7454;51.256;8.176;2023-05-07T01:08:04;13.40;82.00
14727;DHT22;7454;51.256;8.176;2023-05-07T01:10:30;13.40;82.10
14727;DHT22;7454;51.256;8.176;2023-05-07T01:12:57;13.40;82.20
14727;DHT22;7454;51.256;8.176;2023-05-07T01:15:24;13.40;82.20
14727;DHT22;7454;51.256;8.176;2023-05-07T01:17:50;13.30;82.00
14727;DHT22;7454;51.256;8.176;2023-05-07T01:20:24;13.30;82.10
14727;DHT22;7454;51.256;8.176;2023-05-07T01:22:52;13.20;82.20
14727;DHT22;7454;51.256;8.176;2023-05-07T01:25:18;13.20;82.30
14727;DHT22;7454;51.256;8.176;2023-05-07T01:27:48;13.20;82.20
14727;DHT22;7454;51.256;8.176;2023-05-07T01:30:14;13.20;82.20
14727;DHT22;7454;51.256;8.176;2023-05-07T01:32:47;13.20;82.20
14727;DHT22;7454;51.256;8.176;2023-05-07T01:35:29;13.30;82.20
14727;DHT22;7454;51.256;8.176;2023-05-07T01:37:57;13.30;82.10
14727;DHT22;7454;51.256;8.176;2023-05-07T01:40:24;13.30;82.20
14727;DHT22;7454;51.256;8.176;2023-05-07T01:42:50;13.30;82.10
14727;DHT22;7454;51.256;8.176;2023-05-07T01:45:16;13.30;82.10
14727;DHT22;7454;51.256;8.176;2023-05-07T01:47:41;13.30;82.10
14727;DHT22;7454;51.256;8.176;2023-05-07T01:50:08;13.30;82.20
14727;DHT22;7454;51.256;8.176;2023-05-07T01:52:36;13.30;82.20
14727;DHT22;7454;51.256;8.176;2023-05-07T01:55:03;13.30;82.20
14727;DHT22;7454;51.256;8.176;2023-05-07T01:57:29;13.30;82.20
14727;DHT22;7454;51.256;8.176;2023-05-07T01:59:55;13.30;82.30
14727;DHT22;7454;51.256;8.176;2023-05-07T02:02:20;13.20;82.20
14727;DHT22;7454;51.256;8.176;2023-05-07T02:04:46;13.20;82.30
14727;DHT22;7454;51.256;8.176;2023-05-07T02:07:14;13.20;82.10
14727;DHT22;7454;51.256;8.176;2023-05-07T02:09:39;13.20;82.20
14727;DHT22;7454;51.256;8.176;2023-05-07T02:12:05;13.20;82.30
14727;DHT22;7454;51.256;8.176;2023-05-07T02:14:31;13.20;82.10
14727;DHT22;7454;51.256;8.176;2023-05-07T02:16:57;13.20;82.20
14727;DHT22;7454;51.256;8.176;2023-05-07T02:19:23;13.20;82.20
14727;DHT22;7454;51.256;8.176;2023-05-07T02:21:49;13.20;82.20
14727;DHT22;7454;51.256;8.176;2023-05-07T02:24:15;13.20;82.20
14727;DHT22;7454;51.256;8.176;2023-05-07T02:26:40;13.20;82.00
14727;DHT22;7454;51.256;8.176;2023-05-07T02:29:06;13.20;82.10
14727;DHT22;7454;51.256;8.176;2023-05-07T02:31:32;13.20;81.90
14727;DHT22;7454;51.256;8.176;2023-05-07T02:34:00;13.10;82.00
14727;DHT22;7454;51.256;8.176;2023-05-07T02:36:26;13.10;82.00
14727;DHT22;7454;51.256;8.176;2023-05-07T02:39:01;13.10;81.90
14727;DHT22;7454;51.256;8.176;2023-05-07T02:41:27;13.10;81.80
14727;DHT22;7454;51.256;8.176;2023-05-07T02:43:53;13.10;81.70
14727;DHT22;7454;51.256;8.176;2023-05-07T02:46:20;13.10;81.90
14727;DHT22;7454;51.256;8.176;2023-05-07T02:48:50;13.10;81.90
14727;DHT22;7454;51.256;8.176;2023-05-07T02:51:19;13.00;81.90
14727;DHT22;7454;51.256;8.176;2023-05-07T02:53:45;13.10;81.90
14727;DHT22;7454;51.256;8.176;2023-05-07T02:56:11;13.10;81.80
14727;DHT22;7454;51.256;8.176;2023-05-07T02:58:37;13.10;81.90
14727;DHT22;7454;51.256;8.176;2023-05-07T03:01:08;13.00;81.70
14727;DHT22;7454;51.256;8.176;2023-05-07T03:03:38;13.10;82.00
14727;DHT22;7454;51.256;8.176;2023-05-07T03:06:03;13.10;82.10
14727;DHT22;7454;51.256;8.176;2023-05-07T03:08:29;13.10;82.10
14727;DHT22;7454;51.256;8.176;2023-05-07T03:10:55;13.10;82.10
14727;DHT22;7454;51.256;8.176;2023-05-07T03:13:21;13.00;81.90
14727;DHT22;7454;51.256;8.176;2023-05-07T03:15:47;13.00;81.80
14727;DHT22;7454;51.256;8.176;2023-05-07T03:18:13;13.10;81.90
14727;DHT22;7454;51.256;8.176;2023-05-07T03:20:38;13.00;81.90
14727;DHT22;7454;51.256;8.176;2023-05-07T03:23:04;13.00;82.00
14727;DHT22;7454;51.256;8.176;2023-05-07T03:25:30;13.00;82.10
14727;DHT22;7454;51.256;8.176;2023-05-07T03:27:56;13.00;82.20
14727;DHT22;7454;51.256;8.176;2023-05-07T03:30:26;13.00;82.10
14727;DHT22;7454;51.256;8.176;2023-05-07T03:32:51;13.00;82.00
14727;DHT22;7454;51.256;8.176;2023-05-07T03:35:18;13.00;81.90
14727;DHT22;7454;51.256;8.176;2023-05-07T03:37:44;13.00;81.80
14727;DHT22;7454;51.256;8.176;2023-05-07T03:40:11;13.00;81.80
14727;DHT22;7454;51.256;8.176;2023-05-07T03:42:44;13.10;81.80
14727;DHT22;7454;51.256;8.176;2023-05-07T03:45:10;13.10;81.70
14727;DHT22;7454;51.256;8.176;2023-05-07T03:47:39;13.10;81.70
14727;DHT22;7454;51.256;8.176;2023-05-07T03:50:06;13.00;81.90
14727;DHT22;7454;51.256;8.176;2023-05-07T03:52:32;13.00;81.90
14727;DHT22;7454;51.256;8.176;2023-05-07T03:55:01;13.00;82.00
14727;DHT22;7454;51.256;8.176;2023-05-07T03:57:28;13.00;82.00
14727;DHT22;7454;51.256;8.176;2023-05-07T03:59:54;12.90;81.80
14727;DHT22;7454;51.256;8.176;2023-05-07T04:02:20;12.90;82.00
14727;DHT22;7454;51.256;8.176;2023-05-07T04:04:47;12.90;81.90
14727;DHT22;7454;51.256;8.176;2023-05-07T04:07:13;12.90;81.80
14727;DHT22;7454;51.256;8.176;2023-05-07T04:09:46;12.90;81.90
14727;DHT22;7454;51.256;8.176;2023-05-07T04:12:12;12.90;81.80
14727;DHT22;7454;51.256;8.176;2023-05-07T04:14:37;12.90;81.90
14727;DHT22;7454;51.256;8.176;2023-05-07T04:17:03;13.00;81.90
14727;DHT22;7454;51.256;8.176;2023-05-07T04:19:29;13.00;81.80
14727;DHT22;7454;51.256;8.176;2023-05-07T04:21:55;13.00;81.80
14727;DHT22;7454;51.256;8.176;2023-05-07T04:24:21;13.00;81.90
14727;DHT22;7454;51.256;8.176;2023-05-07T04:26:47;13.00;82.00
14727;DHT22;7454;51.256;8.176;2023-05-07T04:29:13;13.00;82.00
14727;DHT22;7454;51.256;8.176;2023-05-07T04:31:38;13.00;82.00
14727;DHT22;7454;51.256;8.176;2023-05-07T04:34:04;13.00;81.90
14727;DHT22;7454;51.256;8.176;2023-05-07T04:36:30;13.00;81.90
14727;DHT22;7454;51.256;8.176;2023-05-07T04:39:02;12.90;81.90
14727;DHT22;7454;51.256;8.176;2023-05-07T04:41:28;12.90;82.00
14727;DHT22;7454;51.256;8.176;2023-05-07T04:43:54;12.90;82.10
14727;DHT22;7454;51.256;8.176;2023-05-07T04:46:22;13.00;82.00
14727;DHT22;7454;51.256;8.176;2023-05-07T04:48:49;12.90;82.00
14727;DHT22;7454;51.256;8.176;2023-05-07T04:51:15;13.00;82.10
14727;DHT22;7454;51.256;8.176;2023-05-07T04:53:41;13.00;82.10
14727;DHT22;7454;51.256;8.176;2023-05-07T04:56:08;13.00;82.10
14727;DHT22;7454;51.256;8.176;2023-05-07T04:58:39;13.10;82.10
14727;DHT22;7454;51.256;8.176;2023-05-07T05:01:04;13.10;82.10
14727;DHT22;7454;51.256;8.176;2023-05-07T05:03:30;13.10;82.00
14727;DHT22;7454;51.256;8.176;2023-05-07T05:05:56;13.10;82.00
14727;DHT22;7454;51.256;8.176;2023-05-07T05:08:25;13.10;82.10
14727;DHT22;7454;51.256;8.176;2023-05-07T05:10:52;13.10;82.20
14727;DHT22;7454;51.256;8.176;2023-05-07T05:13:17;13.20;82.20
14727;DHT22;7454;51.256;8.176;2023-05-07T05:15:43;13.20;82.20
14727;DHT22;7454;51.256;8.176;2023-05-07T05:18:09;13.20;82.20
14727;DHT22;7454;51.256;8.176;2023-05-07T05:20:35;13.20;82.30
14727;DHT22;7454;51.256;8.176;2023-05-07T05:23:01;13.30;82.20
14727;DHT22;7454;51.256;8.176;2023-05-07T05:25:28;13.30;82.20
14727;DHT22;7454;51.256;8.176;2023-05-07T05:27:55;13.30;82.10
14727;DHT22;7454;51.256;8.176;2023-05-07T05:30:22;13.30;82.40
14727;DHT22;7454;51.256;8.176;2023-05-07T05:32:47;13.40;82.40
14727;DHT22;7454;51.256;8.176;2023-05-07T05:35:13;13.40;82.40
14727;DHT22;7454;51.256;8.176;2023-05-07T05:37:40;13.50;82.30
14727;DHT22;7454;51.256;8.176;2023-05-07T05:40:07;13.50;82.20
14727;DHT22;7454;51.256;8.176;2023-05-07T05:42:33;13.50;82.20
14727;DHT22;7454;51.256;8.176;2023-05-07T05:44:59;13.50;81.90
14727;DHT22;7454;51.256;8.176;2023-05-07T05:47:27;13.50;82.10
14727;DHT22;7454;51.256;8.176;2023-05-07T05:49:55;13.50;82.00
14727;DHT22;7454;51.256;8.176;2023-05-07T05:52:20;13.60;82.00
14727;DHT22;7454;51.256;8.176;2023-05-07T05:54:49;13.70;82.10
14727;DHT22;7454;51.256;8.176;2023-05-07T05:57:15;13.80;82.30
14727;DHT22;7454;51.256;8.176;2023-05-07T05:59:41;13.80;82.30
14727;DHT22;7454;51.256;8.176;2023-05-07T06:02:07;13.80;82.20
14727;DHT22;7454;51.256;8.176;2023-05-07T06:04:33;13.90;82.00
14727;DHT22;7454;51.256;8.176;2023-05-07T06:06:59;13.90;81.90
14727;DHT22;7454;51.256;8.176;2023-05-07T06:09:25;14.00;81.80
14727;DHT22;7454;51.256;8.176;2023-05-07T06:11:50;13.90;81.90
14727;DHT22;7454;51.256;8.176;2023-05-07T06:14:16;14.10;81.80
14727;DHT22;7454;51.256;8.176;2023-05-07T06:16:43;14.10;81.70
14727;DHT22;7454;51.256;8.176;2023-05-07T06:19:09;14.20;81.70
14727;DHT22;7454;51.256;8.176;2023-05-07T06:21:36;14.20;81.60
14727;DHT22;7454;51.256;8.176;2023-05-07T06:24:01;14.20;81.50
14727;DHT22;7454;51.256;8.176;2023-05-07T06:26:27;14.30;81.50
14727;DHT22;7454;51.256;8.176;2023-05-07T06:28:53;14.30;81.40
14727;DHT22;7454;51.256;8.176;2023-05-07T06:31:19;14.30;81.50
14727;DHT22;7454;51.256;8.176;2023-05-07T06:33:59;14.40;81.50
14727;DHT22;7454;51.256;8.176;2023-05-07T06:36:30;14.40;81.40
14727;DHT22;7454;51.256;8.176;2023-05-07T06:38:58;14.50;81.40
14727;DHT22;7454;51.256;8.176;2023-05-07T06:41:23;14.60;81.30
14727;DHT22;7454;51.256;8.176;2023-05-07T06:43:49;14.60;81.40
14727;DHT22;7454;51.256;8.176;2023-05-07T06:46:36;14.70;81.60
14727;DHT22;7454;51.256;8.176;2023-05-07T06:49:03;14.60;81.10
14727;DHT22;7454;51.256;8.176;2023-05-07T06:51:29;14.80;81.30
14727;DHT22;7454;51.256;8.176;2023-05-07T06:54:00;14.80;81.20
14727;DHT22;7454;51.256;8.176;2023-05-07T06:56:25;14.90;81.20
14727;DHT22;7454;51.256;8.176;2023-05-07T06:58:51;15.00;80.90
14727;DHT22;7454;51.256;8.176;2023-05-07T07:01:17;15.10;81.00
14727;DHT22;7454;51.256;8.176;2023-05-07T07:03:43;15.20;80.90
14727;DHT22;7454;51.256;8.176;2023-05-07T07:06:09;15.30;80.90
14727;DHT22;7454;51.256;8.176;2023-05-07T07:08:35;15.40;80.80
14727;DHT22;7454;51.256;8.176;2023-05-07T07:11:01;15.50;80.70
14727;DHT22;7454;51.256;8.176;2023-05-07T07:13:26;15.50;80.60
14727;DHT22;7454;51.256;8.176;2023-05-07T07:15:52;15.60;80.60
14727;DHT22;7454;51.256;8.176;2023-05-07T07:18:19;15.70;80.60
14727;DHT22;7454;51.256;8.176;2023-05-07T07:20:46;15.80;80.60
14727;DHT22;7454;51.256;8.176;2023-05-07T07:23:13;15.90;80.60
14727;DHT22;7454;51.256;8.176;2023-05-07T07:25:40;15.90;80.60
14727;DHT22;7454;51.256;8.176;2023-05-07T07:28:06;16.10;80.30
14727;DHT22;7454;51.256;8.176;2023-05-07T07:30:32;16.00;80.40
14727;DHT22;7454;51.256;8.176;2023-05-07T07:32:58;16.10;80.30
14727;DHT22;7454;51.256;8.176;2023-05-07T07:35:29;16.20;80.40
14727;DHT22;7454;51.256;8.176;2023-05-07T07:37:55;16.20;80.30
14727;DHT22;7454;51.256;8.176;2023-05-07T07:40:21;16.40;80.20
14727;DHT22;7454;51.256;8.176;2023-05-07T07:42:47;16.40;80.30
14727;DHT22;7454;51.256;8.176;2023-05-07T07:45:13;16.60;80.50
14727;DHT22;7454;51.256;8.176;2023-05-07T07:47:43;16.50;79.80
14727;DHT22;7454;51.256;8.176;2023-05-07T07:50:09;16.70;80.00
14727;DHT22;7454;51.256;8.176;2023-05-07T07:52:35;16.80;79.80
14727;DHT22;7454;51.256;8.176;2023-05-07T07:55:01;16.80;80.00
14727;DHT22;7454;51.256;8.176;2023-05-07T07:57:27;16.90;80.00
14727;DHT22;7454;51.256;8.176;2023-05-07T07:59:53;17.00;80.20
14727;DHT22;7454;51.256;8.176;2023-05-07T08:02:19;17.10;79.70
14727;DHT22;7454;51.256;8.176;2023-05-07T08:04:46;17.20;79.80
14727;DHT22;7454;51.256;8.176;2023-05-07T08:07:11;17.30;79.90
14727;DHT22;7454;51.256;8.176;2023-05-07T08:09:40;17.40;79.60
14727;DHT22;7454;51.256;8.176;2023-05-07T08:12:07;17.40;79.80
14727;DHT22;7454;51.256;8.176;2023-05-07T08:14:33;17.50;79.70
14727;DHT22;7454;51.256;8.176;2023-05-07T08:17:00;17.60;79.80
14727;DHT22;7454;51.256;8.176;2023-05-07T08:19:26;17.60;79.40
14727;DHT22;7454;51.256;8.176;2023-05-07T08:21:52;17.60;79.30
14727;DHT22;7454;51.256;8.176;2023-05-07T08:24:19;17.60;79.50
14727;DHT22;7454;51.256;8.176;2023-05-07T08:26:45;17.60;79.40
14727;DHT22;7454;51.256;8.176;2023-05-07T08:29:11;17.60;79.70
14727;DHT22;7454;51.256;8.176;2023-05-07T08:31:37;17.70;79.70
14727;DHT22;7454;51.256;8.176;2023-05-07T08:34:04;17.80;79.80
14727;DHT22;7454;51.256;8.176;2023-05-07T08:36:30;17.90;79.60
14727;DHT22;7454;51.256;8.176;2023-05-07T08:38:56;17.80;79.50
14727;DHT22;7454;51.256;8.176;2023-05-07T08:41:22;17.90;79.30
14727;DHT22;7454;51.256;8.176;2023-05-07T08:43:48;18.00;79.50
14727;DHT22;7454;51.256;8.176;2023-05-07T08:46:19;18.00;79.40
14727;DHT22;7454;51.256;8.176;2023-05-07T08:48:49;18.00;79.40
14727;DHT22;7454;51.256;8.176;2023-05-07T08:51:16;18.10;79.20
14727;DHT22;7454;51.256;8.176;2023-05-07T08:53:44;18.10;79.40
14727;DHT22;7454;51.256;8.176;2023-05-07T08:56:15;18.20;79.30
14727;DHT22;7454;51.256;8.176;2023-05-07T08:58:44;18.20;79.30
14727;DHT22;7454;51.256;8.176;2023-05-07T09:01:14;18.20;79.40
14727;DHT22;7454;51.256;8.176;2023-05-07T09:03:42;18.10;79.00
14727;DHT22;7454;51.256;8.176;2023-05-07T09:06:09;18.20;79.50
14727;DHT22;7454;51.256;8.176;2023-05-07T09:08:35;18.30;79.30
14727;DHT22;7454;51.256;8.176;2023-05-07T09:11:02;18.30;79.00
14727;DHT22;7454;51.256;8.176;2023-05-07T09:13:29;18.30;79.00
14727;DHT22;7454;51.256;8.176;2023-05-07T09:15:55;18.20;78.90
14727;DHT22;7454;51.256;8.176;2023-05-07T09:18:25;18.30;79.20
14727;DHT22;7454;51.256;8.176;2023-05-07T09:20:51;18.20;78.80
14727;DHT22;7454;51.256;8.176;2023-05-07T09:23:19;18.30;79.10
14727;DHT22;7454;51.256;8.176;2023-05-07T09:25:45;18.30;78.80
14727;DHT22;7454;51.256;8.176;2023-05-07T09:28:20;18.40;79.00
14727;DHT22;7454;51.256;8.176;2023-05-07T09:30:46;18.40;79.30
14727;DHT22;7454;51.256;8.176;2023-05-07T09:33:13;18.50;79.40
14727;DHT22;7454;51.256;8.176;2023-05-07T09:35:43;18.60;79.00
14727;DHT22;7454;51.256;8.176;2023-05-07T09:38:14;18.70;78.60
14727;DHT22;7454;51.256;8.176;2023-05-07T09:40:44;18.70;78.30
14727;DHT22;7454;51.256;8.176;2023-05-07T09:43:13;18.80;78.20
14727;DHT22;7454;51.256;8.176;2023-05-07T09:45:48;18.80;78.40
14727;DHT22;7454;51.256;8.176;2023-05-07T09:48:17;18.80;78.00
14727;DHT22;7454;51.256;8.176;2023-05-07T09:50:46;18.90;78.20
14727;DHT22;7454;51.256;8.176;2023-05-07T09:53:15;18.90;78.20
14727;DHT22;7454;51.256;8.176;2023-05-07T09:55:43;19.00;78.50
14727;DHT22;7454;51.256;8.176;2023-05-07T09:58:09;19.00;78.10
14727;DHT22;7454;51.256;8.176;2023-05-07T10:00:38;19.10;78.30
14727;DHT22;7454;51.256;8.176;2023-05-07T10:03:09;19.20;78.70
14727;DHT22;7454;51.256;8.176;2023-05-07T10:05:55;19.20;78.20
14727;DHT22;7454;51.256;8.176;2023-05-07T10:08:22;19.20;78.10
14727;DHT22;7454;51.256;8.176;2023-05-07T10:10:50;19.20;78.10
14727;DHT22;7454;51.256;8.176;2023-05-07T10:13:20;19.30;78.00
14727;DHT22;7454;51.256;8.176;2023-05-07T10:15:49;19.40;78.10
14727;DHT22;7454;51.256;8.176;2023-05-07T10:18:16;19.50;78.60
14727;DHT22;7454;51.256;8.176;2023-05-07T10:20:47;19.60;78.10
14727;DHT22;7454;51.256;8.176;2023-05-07T10:23:14;19.60;77.90
14727;DHT22;7454;51.256;8.176;2023-05-07T10:25:46;19.60;77.80
14727;DHT22;7454;51.256;8.176;2023-05-07T10:28:19;19.60;77.80
14727;DHT22;7454;51.256;8.176;2023-05-07T10:33:22;19.60;77.80
14727;DHT22;7454;51.256;8.176;2023-05-07T10:35:50;19.40;77.20
14727;DHT22;7454;51.256;8.176;2023-05-07T10:38:16;19.40;77.90
14727;DHT22;7454;51.256;8.176;2023-05-07T10:40:44;19.40;77.90
14727;DHT22;7454;51.256;8.176;2023-05-07T10:43:11;19.40;77.80
14727;DHT22;7454;51.256;8.176;2023-05-07T10:51:45;19.50;77.50
14727;DHT22;7454;51.256;8.176;2023-05-07T10:54:24;19.50;77.50
14727;DHT22;7454;51.256;8.176;2023-05-07T10:56:59;19.50;77.60
14727;DHT22;7454;51.256;8.176;2023-05-07T11:05:31;19.50;77.60
14727;DHT22;7454;51.256;8.176;2023-05-07T11:08:07;19.50;77.40
14727;DHT22;7454;51.256;8.176;2023-05-07T11:10:56;19.50;77.30
14727;DHT22;7454;51.256;8.176;2023-05-07T11:13:44;19.60;77.20
14727;DHT22;7454;51.256;8.176;2023-05-07T11:16:29;19.70;77.80
14727;DHT22;7454;51.256;8.176;2023-05-07T11:19:09;19.70;76.60
14727;DHT22;7454;51.256;8.176;2023-05-07T11:21:41;19.60;76.70
14727;DHT22;7454;51.256;8.176;2023-05-07T11:24:27;19.60;76.70
14727;DHT22;7454;51.256;8.176;2023-05-07T11:26:57;19.50;76.50
14727;DHT22;7454;51.256;8.176;2023-05-07T11:29:25;19.50;76.60
14727;DHT22;7454;51.256;8.176;2023-05-07T11:31:56;19.50;76.70
14727;DHT22;7454;51.256;8.176;2023-05-07T11:34:26;19.40;76.90
14727;DHT22;7454;51.256;8.176;2023-05-07T11:36:55;19.40;77.10
14727;DHT22;7454;51.256;8.176;2023-05-07T11:41:54;19.20;77.40
14727;DHT22;7454;51.256;8.176;2023-05-07T11:44:20;19.10;77.40
14727;DHT22;7454;51.256;8.176;2023-05-07T11:46:46;19.00;77.80
14727;DHT22;7454;51.256;8.176;2023-05-07T11:49:11;18.90;77.80
14727;DHT22;7454;51.256;8.176;2023-05-07T11:51:37;18.90;78.50
14727;DHT22;7454;51.256;8.176;2023-05-07T11:54:04;18.80;79.20
14727;DHT22;7454;51.256;8.176;2023-05-07T11:56:34;18.80;79.60
14727;DHT22;7454;51.256;8.176;2023-05-07T11:59:00;18.60;79.70
14727;DHT22;7454;51.256;8.176;2023-05-07T12:01:26;18.50;79.80
14727;DHT22;7454;51.256;8.176;2023-05-07T12:03:52;18.50;79.80
14727;DHT22;7454;51.256;8.176;2023-05-07T12:06:17;18.40;80.20
14727;DHT22;7454;51.256;8.176;2023-05-07T12:08:44;18.20;80.00
14727;DHT22;7454;51.256;8.176;2023-05-07T12:11:12;18.20;80.50
14727;DHT22;7454;51.256;8.176;2023-05-07T12:13:40;18.10;81.00
14727;DHT22;7454;51.256;8.176;2023-05-07T12:16:07;17.90;80.90
14727;DHT22;7454;51.256;8.176;2023-05-07T12:18:33;17.70;81.00
14727;DHT22;7454;51.256;8.176;2023-05-07T12:21:00;17.50;80.80
14727;DHT22;7454;51.256;8.176;2023-05-07T12:23:25;17.50;81.30
14727;DHT22;7454;51.256;8.176;2023-05-07T12:25:51;17.30;80.80
14727;DHT22;7454;51.256;8.176;2023-05-07T12:28:17;17.20;81.50
14727;DHT22;7454;51.256;8.176;2023-05-07T12:30:45;17.10;81.30
14727;DHT22;7454;51.256;8.176;2023-05-07T12:33:11;16.90;81.10
14727;DHT22;7454;51.256;8.176;2023-05-07T12:35:38;16.80;81.60
14727;DHT22;7454;51.256;8.176;2023-05-07T12:38:08;16.70;81.20
14727;DHT22;7454;51.256;8.176;2023-05-07T12:40:35;16.60;81.20
14727;DHT22;7454;51.256;8.176;2023-05-07T12:43:01;16.50;80.80
14727;DHT22;7454;51.256;8.176;2023-05-07T12:45:27;16.30;80.50
14727;DHT22;7454;51.256;8.176;2023-05-07T12:47:52;16.20;80.70
14727;DHT22;7454;51.256;8.176;2023-05-07T12:50:18;16.10;81.30
14727;DHT22;7454;51.256;8.176;2023-05-07T12:52:49;16.00;81.00
14727;DHT22;7454;51.256;8.176;2023-05-07T12:55:15;16.00;80.70
14727;DHT22;7454;51.256;8.176;2023-05-07T12:57:42;15.90;80.70
14727;DHT22;7454;51.256;8.176;2023-05-07T13:00:13;15.90;80.80
14727;DHT22;7454;51.256;8.176;2023-05-07T13:02:40;15.80;80.60
14727;DHT22;7454;51.256;8.176;2023-05-07T13:05:07;15.70;81.10
14727;DHT22;7454;51.256;8.176;2023-05-07T13:07:33;15.70;81.50
14727;DHT22;7454;51.256;8.176;2023-05-07T13:09:59;15.70;81.30
14727;DHT22;7454;51.256;8.176;2023-05-07T13:12:25;15.70;81.50
14727;DHT22;7454;51.256;8.176;2023-05-07T13:14:50;15.70;81.30
14727;DHT22;7454;51.256;8.176;2023-05-07T13:17:16;15.60;82.10
14727;DHT22;7454;51.256;8.176;2023-05-07T13:19:41;15.70;81.80
14727;DHT22;7454;51.256;8.176;2023-05-07T13:22:07;15.70;82.30
14727;DHT22;7454;51.256;8.176;2023-05-07T13:24:33;15.70;82.50
14727;DHT22;7454;51.256;8.176;2023-05-07T13:26:59;15.70;82.70
14727;DHT22;7454;51.256;8.176;2023-05-07T13:29:24;15.70;82.10
14727;DHT22;7454;51.256;8.176;2023-05-07T13:31:54;15.70;82.20
14727;DHT22;7454;51.256;8.176;2023-05-07T13:34:20;15.70;82.30
14727;DHT22;7454;51.256;8.176;2023-05-07T13:36:46;15.70;81.90
14727;DHT22;7454;51.256;8.176;2023-05-07T13:39:11;15.60;81.50
14727;DHT22;7454;51.256;8.176;2023-05-07T13:41:37;15.60;82.20
14727;DHT22;7454;51.256;8.176;2023-05-07T13:44:02;15.60;82.30
14727;DHT22;7454;51.256;8.176;2023-05-07T13:46:28;15.50;82.40
14727;DHT22;7454;51.256;8.176;2023-05-07T13:48:55;15.40;82.10
14727;DHT22;7454;51.256;8.176;2023-05-07T13:51:21;15.40;81.80
14727;DHT22;7454;51.256;8.176;2023-05-07T13:53:46;15.30;82.10
14727;DHT22;7454;51.256;8.176;2023-05-07T13:56:12;15.30;82.20
14727;DHT22;7454;51.256;8.176;2023-05-07T13:58:39;15.20;82.50
14727;DHT22;7454;51.256;8.176;2023-05-07T14:01:05;15.20;83.00
14727;DHT22;7454;51.256;8.176;2023-05-07T14:03:31;15.30;83.10
14727;DHT22;7454;51.256;8.176;2023-05-07T14:05:59;15.20;82.50
14727;DHT22;7454;51.256;8.176;2023-05-07T14:08:26;15.30;82.70
14727;DHT22;7454;51.256;8.176;2023-05-07T14:10:52;15.20;83.00
14727;DHT22;7454;51.256;8.176;2023-05-07T14:13:18;15.20;83.80
14727;DHT22;7454;51.256;8.176;2023-05-07T14:15:44;15.20;83.30
14727;DHT22;7454;51.256;8.176;2023-05-07T14:18:14;15.20;83.00
14727;DHT22;7454;51.256;8.176;2023-05-07T14:20:41;15.20;83.30
14727;DHT22;7454;51.256;8.176;2023-05-07T14:23:08;15.20;83.30
14727;DHT22;7454;51.256;8.176;2023-05-07T14:25:34;15.10;82.70
14727;DHT22;7454;51.256;8.176;2023-05-07T14:27:59;15.00;82.60
14727;DHT22;7454;51.256;8.176;2023-05-07T14:30:25;15.20;83.20
14727;DHT22;7454;51.256;8.176;2023-05-07T14:32:51;15.20;83.20
14727;DHT22;7454;51.256;8.176;2023-05-07T14:35:16;15.20;83.20
14727;DHT22;7454;51.256;8.176;2023-05-07T14:37:42;15.30;83.50
14727;DHT22;7454;51.256;8.176;2023-05-07T14:40:09;15.40;84.00
14727;DHT22;7454;51.256;8.176;2023-05-07T14:42:35;15.40;83.60
14727;DHT22;7454;51.256;8.176;2023-05-07T14:45:01;15.40;83.70
14727;DHT22;7454;51.256;8.176;2023-05-07T14:47:27;15.50;84.10
14727;DHT22;7454;51.256;8.176;2023-05-07T14:49:53;15.50;84.40
14727;DHT22;7454;51.256;8.176;2023-05-07T14:52:19;15.60;84.00
14727;DHT22;7454;51.256;8.176;2023-05-07T14:54:45;15.60;84.10
14727;DHT22;7454;51.256;8.176;2023-05-07T14:57:13;15.70;84.40
14727;DHT22;7454;51.256;8.176;2023-05-07T14:59:41;15.70;83.90
14727;DHT22;7454;51.256;8.176;2023-05-07T15:02:07;15.70;84.10
14727;DHT22;7454;51.256;8.176;2023-05-07T15:04:33;15.70;84.30
14727;DHT22;7454;51.256;8.176;2023-05-07T15:06:59;15.70;83.60
14727;DHT22;7454;51.256;8.176;2023-05-07T15:09:25;15.70;83.60
14727;DHT22;7454;51.256;8.176;2023-05-07T15:11:51;15.70;84.00
14727;DHT22;7454;51.256;8.176;2023-05-07T15:14:17;15.80;83.30
14727;DHT22;7454;51.256;8.176;2023-05-07T15:16:42;15.70;83.30
14727;DHT22;7454;51.256;8.176;2023-05-07T15:19:08;15.80;83.70
14727;DHT22;7454;51.256;8.176;2023-05-07T15:21:34;15.90;84.10
14727;DHT22;7454;51.256;8.176;2023-05-07T15:24:01;16.00;84.00
14727;DHT22;7454;51.256;8.176;2023-05-07T15:26:27;15.90;84.10
14727;DHT22;7454;51.256;8.176;2023-05-07T15:28:52;15.90;84.10
14727;DHT22;7454;51.256;8.176;2023-05-07T15:31:18;16.00;84.30
14727;DHT22;7454;51.256;8.176;2023-05-07T15:33:44;15.90;84.00
14727;DHT22;7454;51.256;8.176;2023-05-07T15:36:10;16.00;83.70
14727;DHT22;7454;51.256;8.176;2023-05-07T15:38:36;16.10;83.90
14727;DHT22;7454;51.256;8.176;2023-05-07T15:41:01;16.00;83.60
14727;DHT22;7454;51.256;8.176;2023-05-07T15:43:27;16.00;83.30
14727;DHT22;7454;51.256;8.176;2023-05-07T15:45:53;16.10;83.80
14727;DHT22;7454;51.256;8.176;2023-05-07T15:48:18;16.10;83.50
14727;DHT22;7454;51.256;8.176;2023-05-07T15:50:44;16.00;83.30
14727;DHT22;7454;51.256;8.176;2023-05-07T15:53:10;16.00;83.70
14727;DHT22;7454;51.256;8.176;2023-05-07T15:55:38;16.00;82.90
14727;DHT22;7454;51.256;8.176;2023-05-07T15:58:05;16.10;83.10
14727;DHT22;7454;51.256;8.176;2023-05-07T16:00:31;16.10;82.80
14727;DHT22;7454;51.256;8.176;2023-05-07T16:02:57;16.10;82.90